createdAt,value
2023-01-19T06:27:52.368Z,99186.53
2023-01-19T06:30:20.375Z,99200.41
2023-01-19T06:32:47.899Z,99196.06
2023-01-19T06:35:15.514Z,99206.47
2023-01-19T06:37:43.021Z,99218.59
2023-01-19T06:40:13.641Z,99209.94
2023-01-19T06:42:41.941Z,99206.47
2023-01-19T06:45:10.199Z,99207.31
2023-01-19T06:56:44.237Z,99225.53
2023-01-19T06:59:11.685Z,99228.13
2023-01-19T07:01:39.303Z,99234.19
2023-01-19T07:13:14.269Z,99261.94
2023-01-19T07:24:51.181Z,99268.84
2023-01-19T07:27:18.774Z,99279.25
2023-01-19T07:29:46.213Z,99292.25
2023-01-19T07:41:25.325Z,99300.06
2023-01-19T07:43:53.030Z,99310.47
2023-01-19T07:46:20.579Z,99315.66
2023-01-19T07:57:59.392Z,99359.88
2023-01-19T08:00:27.070Z,99357.25
2023-01-19T08:03:03.478Z,99353.81
2023-01-19T08:14:38.787Z,99388.44
2023-01-19T08:17:06.297Z,99394.50
2023-01-19T08:19:33.794Z,99402.28
2023-01-19T08:31:25.235Z,99434.03
2023-01-19T08:33:53.523Z,99428.88
2023-01-19T08:36:21.557Z,99434.09
2023-01-19T08:48:00.452Z,99467.78
2023-01-19T08:50:30.176Z,99468.81
2023-01-19T08:53:00.039Z,99485.34
2023-01-19T09:04:36.466Z,99486.44
2023-01-19T09:09:34.154Z,99489.78
2023-01-19T09:21:15.234Z,99519.75
2023-01-19T09:23:42.736Z,99527.50
2023-01-19T09:26:10.344Z,99521.41
2023-01-19T09:37:21.365Z,99547.72
2023-01-19T09:49:16.600Z,99562.38
2023-01-19T09:51:48.847Z,99557.97
2023-01-19T09:54:24.009Z,99567.44
2023-01-19T09:56:53.625Z,99556.13
2023-01-19T09:59:25.301Z,99571.81
2023-01-19T10:10:59.097Z,99567.81
2023-01-19T10:13:39.281Z,99576.44
2023-01-19T10:16:37.724Z,99577.91
2023-01-19T10:28:16.676Z,99592.03
2023-01-19T10:30:46.496Z,99594.56
2023-01-19T10:33:15.455Z,99588.34
2023-01-19T10:44:52.388Z,99585.16
2023-01-19T10:47:23.619Z,99576.56
2023-01-19T10:49:52.280Z,99575.59
2023-01-19T11:01:31.359Z,99570.84
2023-01-19T11:04:05.444Z,99565.94
2023-01-19T11:06:34.356Z,99555.63
2023-01-19T11:22:44.699Z,99548.03
2023-01-19T11:34:32.210Z,99543.09
2023-01-19T11:37:03.353Z,99543.34
2023-01-19T11:39:45.032Z,99539.72
2023-01-19T11:45:07.696Z,99536.09
2023-01-19T11:56:43.981Z,99528.31
2023-01-19T11:59:13.439Z,99524.84
2023-01-19T12:01:49.605Z,99520.16
2023-01-19T12:04:23.401Z,99526.38
2023-01-19T12:06:54.855Z,99519.41
2023-01-19T12:09:48.932Z,99518.06
2023-01-19T12:12:27.118Z,99509.69
2023-01-19T12:15:07.015Z,99517.59
2023-01-19T12:17:45.462Z,99515.59
2023-01-19T12:20:49.748Z,99511.50
2023-01-19T12:23:30.266Z,99510.38
2023-01-19T12:26:29.908Z,99509.69
2023-01-19T12:29:04.677Z,99516.47
2023-01-19T12:31:34.025Z,99516.50
2023-01-19T12:34:27.400Z,99525.50
2023-01-19T12:37:05.557Z,99511.31
2023-01-19T12:43:16.909Z,99522.19
2023-01-19T12:45:48.133Z,99516.13
2023-01-19T12:48:27.592Z,99514.41
2023-01-19T12:50:55.206Z,99521.50
2023-01-19T12:53:23.065Z,99518.75
2023-01-19T12:56:06.165Z,99527.34
2023-01-19T12:58:34.676Z,99521.06
2023-01-19T13:01:21.927Z,99526.91
2023-01-19T13:04:09.794Z,99529.66
2023-01-19T13:07:08.594Z,99532.59
2023-01-19T13:09:39.389Z,99533.47
2023-01-19T13:12:25.976Z,99535.47
2023-01-19T13:15:27.293Z,99541.47
2023-01-19T13:17:55.670Z,99528.44
2023-01-19T13:20:28.568Z,99541.41
2023-01-19T13:23:17.654Z,99544.75
2023-01-19T13:25:51.715Z,99546.44
2023-01-19T13:28:24.210Z,99540.34
2023-01-19T13:30:57.106Z,99549.06
2023-01-19T13:33:28.133Z,99547.25
2023-01-19T13:35:59.550Z,99558.56
2023-01-19T15:21:52.235Z,99631.06
2023-01-19T15:24:23.218Z,99624.13
2023-01-19T15:26:58.475Z,99627.50
2023-01-19T15:29:26.973Z,99623.16
2023-01-19T15:31:54.747Z,99626.59
2023-01-19T15:34:26.274Z,99624.00
2023-01-19T15:37:00.125Z,99630.97
2023-01-19T15:39:27.804Z,99630.03
2023-01-19T15:41:55.675Z,99631.78
2023-01-19T15:44:23.527Z,99637.81
2023-01-19T15:46:53.245Z,99633.47
2023-01-19T15:49:23.295Z,99642.13
2023-01-19T15:51:51.055Z,99644.72
2023-01-19T15:54:19.378Z,99634.25
2023-01-19T15:56:47.250Z,99633.25
2023-01-19T15:59:31.277Z,99628.94
2023-01-19T16:02:03.757Z,99637.59
2023-01-19T16:04:31.547Z,99653.19
2023-01-19T16:06:59.267Z,99635.88
2023-01-19T16:09:26.916Z,99646.28
2023-01-19T16:11:57.048Z,99662.69
2023-01-19T16:14:39.371Z,99666.13
2023-01-19T16:17:09.181Z,99653.22
2023-01-19T16:20:01.878Z,99651.53
2023-01-19T16:26:45.679Z,99660.16
2023-01-19T16:29:49.624Z,99662.69
2023-01-19T16:33:08.810Z,99662.56
2023-01-19T16:39:36.359Z,99669.38
2023-01-19T16:43:08.935Z,99681.25
2023-01-19T16:46:25.445Z,99689.84
2023-01-19T16:49:28.683Z,99688.97
2023-01-19T16:52:23.410Z,99699.19
2023-01-19T16:55:31.743Z,99713.03
2023-01-19T17:02:02.617Z,99723.56
2023-01-19T17:05:00.890Z,99726.22
2023-01-19T17:07:57.436Z,99732.31
2023-01-19T17:10:51.335Z,99731.38
2023-01-19T17:14:04.304Z,99741.00
2023-01-19T17:17:09.054Z,99747.25
2023-01-19T17:20:46.715Z,99745.75
2023-01-19T17:26:50.910Z,99748.53
2023-01-19T17:30:23.638Z,99755.47
2023-01-19T17:33:13.611Z,99756.38
2023-01-19T17:36:31.915Z,99759.00
2023-01-19T17:39:16.071Z,99759.84
2023-01-19T17:42:11.515Z,99759.00
2023-01-19T17:45:08.399Z,99749.47
2023-01-19T17:47:38.486Z,99759.03
2023-01-19T17:50:11.905Z,99757.38
2023-01-19T17:53:04.958Z,99748.78
2023-01-19T17:55:38.078Z,99752.25
2023-01-19T17:58:05.577Z,99757.38
2023-01-19T18:00:40.643Z,99759.19
2023-01-19T18:03:09.604Z,99764.47
2023-01-19T18:05:37.228Z,99763.59
2023-01-19T18:08:05.083Z,99773.09
2023-01-19T18:10:33.164Z,99768.84
2023-01-19T18:13:00.617Z,99769.66
2023-01-19T18:15:28.176Z,99764.47
2023-01-19T18:17:55.781Z,99761.88
2023-01-19T18:20:23.276Z,99767.97
2023-01-19T18:22:53.489Z,99766.25
2023-01-19T18:25:20.947Z,99763.66
2023-01-19T18:27:48.862Z,99766.25
2023-01-19T18:30:16.947Z,99761.94
2023-01-19T18:32:44.504Z,99769.72
2023-01-19T18:35:12.487Z,99758.50
2023-01-19T18:37:40.181Z,99748.03
2023-01-19T18:40:08.542Z,99755.91
2023-01-19T18:42:36.195Z,99749.75
2023-01-19T18:45:04.074Z,99745.41
2023-01-19T18:47:33.314Z,99751.44
2023-01-19T18:50:00.930Z,99752.25
2023-01-19T18:52:29.244Z,99751.47
2023-01-19T18:54:56.767Z,99750.56
2023-01-19T18:57:24.432Z,99741.03
2023-01-19T18:59:55.160Z,99751.47
2023-01-19T19:02:24.426Z,99755.00
2023-01-19T19:04:55.083Z,99748.91
2023-01-19T19:07:22.647Z,99748.09
2023-01-19T19:09:50.024Z,99747.19
2023-01-19T19:12:17.513Z,99748.00
2023-01-19T19:14:45.033Z,99744.63
2023-01-19T19:17:13.753Z,99755.00
2023-01-19T19:19:41.335Z,99745.41
2023-01-19T19:22:09.051Z,99735.84
2023-01-19T19:24:36.934Z,99747.09
2023-01-19T19:27:04.648Z,99746.13
2023-01-19T19:29:32.330Z,99747.06
2023-01-19T19:32:06.311Z,99744.53
2023-01-19T19:34:53.359Z,99753.81
2023-01-19T19:37:21.072Z,99747.75
2023-01-19T19:39:48.686Z,99737.44
2023-01-19T19:42:16.252Z,99752.88
2023-01-19T19:44:43.930Z,99763.31
2023-01-19T19:47:11.641Z,99751.13
2023-01-19T19:49:39.354Z,99758.03
2023-01-19T19:52:08.846Z,99753.66
2023-01-19T19:54:36.402Z,99756.25
2023-01-19T19:57:11.599Z,99753.19
2023-01-19T20:02:44.818Z,99752.94
2023-01-19T20:05:13.717Z,99754.59
2023-01-19T20:07:47.283Z,99746.34
2023-01-19T20:10:15.174Z,99747.50
2023-01-19T20:12:42.873Z,99757.28
2023-01-19T20:15:11.259Z,99760.09
2023-01-19T20:17:38.831Z,99751.69
2023-01-19T20:20:07.140Z,99766.94
2023-01-19T20:22:37.911Z,99761.97
2023-01-19T20:25:08.997Z,99757.97
2023-01-19T20:27:36.668Z,99754.38
2023-01-19T20:30:08.407Z,99766.56
2023-01-19T20:32:39.757Z,99761.00
2023-01-19T20:35:07.260Z,99761.16
2023-01-19T20:37:37.034Z,99763.19
2023-01-19T20:40:17.242Z,99764.19
2023-01-19T20:42:52.278Z,99763.66
2023-01-19T20:45:20.845Z,99765.19
2023-01-19T20:47:48.759Z,99775.69
2023-01-19T20:50:19.515Z,99765.56
2023-01-19T20:52:50.844Z,99775.66
2023-01-19T20:55:30.188Z,99788.78
2023-01-19T20:58:00.913Z,99786.63
2023-01-19T21:00:30.207Z,99795.44
2023-01-19T21:02:57.778Z,99792.84
2023-01-19T21:05:25.429Z,99803.91
2023-01-19T21:07:53.018Z,99802.41
2023-01-19T21:10:22.255Z,99801.75
2023-01-19T21:12:49.859Z,99801.59
2023-01-19T21:15:18.782Z,99806.00
2023-01-19T21:17:46.354Z,99801.88
2023-01-19T21:20:14.161Z,99808.97
2023-01-19T21:22:41.710Z,99800.63
2023-01-19T21:25:12.749Z,99799.69
2023-01-19T21:27:43.218Z,99801.84
2023-01-19T21:30:11.240Z,99807.72
2023-01-19T21:32:38.905Z,99809.63
2023-01-19T21:35:06.756Z,99813.44
2023-01-19T21:37:34.350Z,99809.88
2023-01-19T21:40:01.996Z,99811.72
2023-01-19T21:42:29.570Z,99812.91
2023-01-19T21:44:57.111Z,99814.75
2023-01-19T21:47:24.690Z,99821.72
2023-01-19T21:49:52.274Z,99812.34
2023-01-19T21:52:20.235Z,99831.09
2023-01-19T21:54:47.845Z,99828.53
2023-01-19T21:57:15.477Z,99833.16
2023-01-19T21:59:45.923Z,99834.16
2023-01-19T22:03:03.855Z,99836.78
2023-01-19T22:05:37.137Z,99831.44
2023-01-19T22:08:06.526Z,99823.66
2023-01-19T22:10:39.092Z,99829.81
2023-01-19T22:13:11.993Z,99844.63
2023-01-19T22:15:39.903Z,99844.09
2023-01-19T22:18:20.733Z,99839.06
2023-01-19T22:20:53.958Z,99844.47
2023-01-19T22:23:25.291Z,99844.81
2023-01-19T22:25:57.904Z,99851.00
2023-01-19T22:28:34.597Z,99854.09
2023-01-19T22:31:14.894Z,99847.81
2023-01-19T22:33:46.336Z,99851.22
2023-01-19T22:36:28.435Z,99850.47
2023-01-19T22:38:58.199Z,99835.22
2023-01-19T22:41:35.100Z,99844.03
2023-01-19T22:44:05.537Z,99852.00
2023-01-19T22:46:34.973Z,99840.47
2023-01-19T22:49:03.848Z,99839.47
2023-01-19T22:51:34.832Z,99848.25
2023-01-19T22:54:03.709Z,99848.31
2023-01-19T22:56:40.829Z,99853.34
2023-01-19T22:59:13.679Z,99855.13
2023-01-19T23:01:43.965Z,99851.59
2023-01-19T23:04:15.931Z,99845.91
2023-01-19T23:06:43.744Z,99845.13
2023-01-19T23:09:13.395Z,99848.66
2023-01-19T23:11:43.012Z,99856.41
2023-01-19T23:14:16.196Z,99851.81
2023-01-19T23:16:43.763Z,99863.53
2023-01-19T23:19:12.347Z,99853.56
2023-01-19T23:21:40.697Z,99867.72
2023-01-19T23:24:08.662Z,99874.03
2023-01-19T23:26:39.370Z,99871.56
2023-01-19T23:29:11.664Z,99874.81
2023-01-19T23:31:42.659Z,99880.22
2023-01-19T23:34:11.389Z,99868.88
2023-01-19T23:36:40.853Z,99879.31
2023-01-19T23:39:14.046Z,99868.75
2023-01-19T23:41:41.747Z,99871.00
2023-01-19T23:44:09.591Z,99862.00
2023-01-19T23:46:37.702Z,99875.16
2023-01-19T23:49:05.508Z,99877.34
2023-01-19T23:51:33.602Z,99876.63
2023-01-19T23:54:01.656Z,99877.41
2023-01-19T23:56:33.154Z,99881.81
2023-01-19T23:59:04.789Z,99877.38
